Time;durP1;ratioP1;P1;durP2;ratioP2;P2;SDS_P1;SDS_P2;PMS_P1;PMS_P2;Temp;Humidity;BMP_temperature;BMP_pressure;BME280_temperature;BME280_humidity;BME280_pressure;Samples;Min_cycle;Max_cycle;Signal;HPM_P1;HPM_P2
2022/11/23 00:01:22;;;;;;;5.10;1.40;;;4.50;99.90;;;;;;5022902;28;20473;-77
2022/11/23 00:03:51;;;;;;;6.00;1.60;;;4.40;99.90;;;;;;5023705;28;20144;-78
2022/11/23 00:06:17;;;;;;;4.57;1.70;;;4.40;99.90;;;;;;5019883;28;20649;-78
2022/11/23 00:08:43;;;;;;;6.43;1.85;;;4.40;99.90;;;;;;5021714;28;20052;-78
2022/11/23 00:11:09;;;;;;;10.10;2.40;;;4.40;99.90;;;;;;5021256;28;20033;-78
2022/11/23 00:13:38;;;;;;;9.93;1.80;;;4.40;99.90;;;;;;5020353;28;20034;-78
2022/11/23 00:16:18;;;;;;;7.05;2.10;;;4.40;99.90;;;;;;5020670;28;20102;-78
2022/11/23 00:18:44;;;;;;;6.63;1.60;;;4.30;99.90;;;;;;5019527;28;20044;-78
2022/11/23 00:21:15;;;;;;;2.22;1.10;;;4.30;99.90;;;;;;5023317;28;20049;-78
2022/11/23 00:23:42;;;;;;;3.13;1.50;;;4.30;99.90;;;;;;5020107;28;20025;-78
2022/11/23 00:26:08;;;;;;;6.28;1.70;;;4.30;99.90;;;;;;5022233;28;20032;-78
2022/11/23 00:28:37;;;;;;;4.28;1.25;;;4.30;99.90;;;;;;5019936;28;20509;-78
2022/11/23 00:31:04;;;;;;;7.55;1.52;;;4.20;99.90;;;;;;5023435;28;20433;-78
2022/11/23 00:33:29;;;;;;;6.95;1.85;;;4.20;99.90;;;;;;5022233;28;20435;-78
2022/11/23 00:36:15;;;;;;;4.85;1.83;;;4.20;99.90;;;;;;5021972;28;20028;-77
2022/11/23 00:38:42;;;;;;;5.43;1.85;;;4.20;99.90;;;;;;5023856;28;20021;-77
2022/11/23 00:41:10;;;;;;;6.40;1.70;;;4.10;99.90;;;;;;5026101;28;20165;-77
2022/11/23 00:43:36;;;;;;;3.80;1.73;;;4.10;99.90;;;;;;5024954;28;20073;-77
2022/11/23 00:46:14;;;;;;;5.10;2.10;;;4.00;99.90;;;;;;5028664;28;20127;-77
2022/11/23 00:48:41;;;;;;;5.63;1.80;;;4.00;99.90;;;;;;5023292;28;20096;-77
2022/11/23 00:51:08;;;;;;;7.70;1.83;;;3.90;99.90;;;;;;5026077;28;20112;-77
2022/11/23 00:53:35;;;;;;;9.13;2.47;;;3.90;99.90;;;;;;5029209;28;20432;-77
2022/11/23 00:56:01;;;;;;;6.35;2.13;;;3.90;99.90;;;;;;5027277;28;20033;-77
2022/11/23 00:58:27;;;;;;;7.00;1.92;;;3.80;99.90;;;;;;5022297;28;20493;-77
2022/11/23 01:01:10;;;;;;;7.88;2.13;;;3.80;99.90;;;;;;5022135;28;20022;-77
2022/11/23 01:03:39;;;;;;;4.70;1.92;;;3.80;99.90;;;;;;5025121;28;20029;-77
2022/11/23 01:06:10;;;;;;;6.18;1.75;;;3.80;99.90;;;;;;5027700;28;20087;-78
2022/11/23 01:08:36;;;;;;;5.18;1.73;;;3.70;99.90;;;;;;5025880;28;20030;-78
2022/11/23 01:11:05;;;;;;;4.05;2.00;;;3.70;99.90;;;;;;5027740;28;20374;-78
2022/11/23 01:13:31;;;;;;;4.70;1.45;;;3.70;99.90;;;;;;5021039;28;20119;-78
2022/11/23 01:15:57;;;;;;;3.90;1.80;;;3.70;99.90;;;;;;5023764;28;20051;-78
2022/11/23 01:18:23;;;;;;;5.07;2.40;;;3.70;99.90;;;;;;5024313;28;20030;-78
2022/11/23 01:20:48;;;;;;;7.50;1.70;;;3.70;99.90;;;;;;5022400;28;20523;-78
2022/11/23 01:23:14;;;;;;;6.22;2.28;;;3.70;99.90;;;;;;5023319;28;20280;-77
2022/11/23 01:25:40;;;;;;;4.10;1.70;;;3.70;99.90;;;;;;5024536;28;20100;-78
2022/11/23 01:28:05;;;;;;;3.72;1.60;;;3.70;99.90;;;;;;5021434;28;20413;-78
2022/11/23 01:30:33;;;;;;;4.68;1.25;;;3.70;99.90;;;;;;5021518;28;20028;-78
2022/11/23 01:32:59;;;;;;;6.20;1.83;;;3.70;99.90;;;;;;5023596;28;20535;-78
2022/11/23 01:35:25;;;;;;;6.63;1.73;;;3.70;99.90;;;;;;5025414;28;20038;-78
2022/11/23 01:37:50;;;;;;;6.82;1.90;;;3.80;99.90;;;;;;5020964;28;20021;-78
2022/11/23 01:40:16;;;;;;;6.82;1.77;;;3.70;99.90;;;;;;5026236;28;20029;-77
2022/11/23 01:42:59;;;;;;;7.32;1.67;;;3.70;99.90;;;;;;5020967;28;20037;-78
2022/11/23 01:45:33;;;;;;;5.45;1.77;;;3.70;99.90;;;;;;5019781;28;20029;-78
2022/11/23 01:48:00;;;;;;;5.57;1.17;;;3.70;99.90;;;;;;5027082;28;20454;-78
2022/11/23 01:50:26;;;;;;;5.75;1.50;;;3.70;99.90;;;;;;5019077;28;20034;-78
2022/11/23 01:52:52;;;;;;;5.70;1.50;;;3.70;99.90;;;;;;5023927;28;20032;-78
2022/11/23 01:55:18;;;;;;;8.50;1.73;;;3.70;99.90;;;;;;5024051;28;20540;-78
2022/11/23 01:57:44;;;;;;;4.28;1.30;;;3.70;99.90;;;;;;5024868;28;20030;-78
2022/11/23 02:00:12;;;;;;;3.70;1.65;;;3.70;99.90;;;;;;5023611;28;20037;-78
2022/11/23 02:02:43;;;;;;;5.45;1.50;;;3.70;99.90;;;;;;5018746;28;20433;-77
2022/11/23 02:05:09;;;;;;;5.35;1.50;;;3.70;99.90;;;;;;5023444;28;20080;-78
2022/11/23 02:07:35;;;;;;;4.60;1.35;;;3.70;99.90;;;;;;5020339;28;20370;-78
2022/11/23 02:10:01;;;;;;;5.50;1.30;;;3.70;99.90;;;;;;5021395;28;20029;-78
2022/11/23 02:12:27;;;;;;;8.23;1.30;;;3.80;99.90;;;;;;5028993;23;23859;-79
2022/11/23 02:14:53;;;;;;;5.82;1.10;;;3.80;99.90;;;;;;5012653;28;20041;-79
2022/11/23 02:17:20;;;;;;;7.00;1.20;;;3.80;99.90;;;;;;5010672;28;20030;-79
2022/11/23 02:20:01;;;;;;;2.83;1.08;;;3.80;99.90;;;;;;5010075;28;20156;-79
2022/11/23 02:22:34;;;;;;;3.90;0.90;;;3.80;99.90;;;;;;4990276;28;20023;-79
2022/11/23 02:25:07;;;;;;;7.18;2.08;;;3.80;99.90;;;;;;4993795;28;20026;-78
2022/11/23 02:27:33;;;;;;;3.65;1.10;;;3.80;99.90;;;;;;5019807;23;20045;-74
2022/11/23 02:29:59;;;;;;;5.10;1.42;;;3.80;99.90;;;;;;5012339;28;20398;-74
2022/11/23 02:32:29;;;;;;;6.63;1.58;;;3.80;99.90;;;;;;5010818;28;20030;-74
2022/11/23 02:34:58;;;;;;;5.88;1.25;;;3.80;99.90;;;;;;5020134;28;20021;-73
2022/11/23 02:37:24;;;;;;;3.28;1.15;;;3.80;99.90;;;;;;5005820;28;20049;-74
2022/11/23 02:39:52;;;;;;;6.50;1.55;;;3.80;99.90;;;;;;5010749;28;20234;-72
2022/11/23 02:42:22;;;;;;;4.03;1.42;;;3.80;99.90;;;;;;5010087;28;20032;-74
2022/11/23 02:45:17;;;;;;;4.45;1.65;;;3.80;99.90;;;;;;5007031;28;20034;-74
2022/11/23 02:47:46;;;;;;;3.03;1.05;;;3.80;99.90;;;;;;5009038;28;20030;-73
2022/11/23 02:50:18;;;;;;;5.55;1.40;;;3.70;99.90;;;;;;5008937;28;20084;-73
2022/11/23 02:52:47;;;;;;;5.68;1.23;;;3.70;99.90;;;;;;5004051;28;20026;-76
2022/11/23 02:55:15;;;;;;;2.90;1.10;;;3.70;99.90;;;;;;5008847;28;20075;-74
2022/11/23 02:57:41;;;;;;;4.50;1.45;;;3.70;99.90;;;;;;5005454;28;20025;-73
2022/11/23 03:00:07;;;;;;;6.57;1.50;;;3.70;99.90;;;;;;5007886;28;20540;-75
2022/11/23 03:02:33;;;;;;;3.88;1.08;;;3.70;99.90;;;;;;5005468;28;20041;-75
2022/11/23 03:05:05;;;;;;;4.10;1.02;;;3.70;99.90;;;;;;5002932;28;20432;-77
2022/11/23 03:07:34;;;;;;;8.90;2.20;;;3.70;99.90;;;;;;5003590;28;20030;-75
2022/11/23 03:10:09;;;;;;;7.88;1.33;;;3.60;99.90;;;;;;5005249;28;20037;-74
2022/11/23 03:12:34;;;;;;;4.70;1.63;;;3.60;99.90;;;;;;5007955;28;20033;-77
2022/11/23 03:15:12;;;;;;;6.03;1.50;;;3.60;99.90;;;;;;5005918;28;20494;-75
2022/11/23 03:17:41;;;;;;;4.00;1.65;;;3.60;99.90;;;;;;5006218;28;20027;-75
2022/11/23 03:20:07;;;;;;;5.28;1.38;;;3.50;99.90;;;;;;5006742;28;20056;-75
2022/11/23 03:22:33;;;;;;;11.13;1.60;;;3.50;99.90;;;;;;5006344;28;20486;-75
2022/11/23 03:25:01;;;;;;;8.68;1.67;;;3.50;99.90;;;;;;5004433;28;20422;-73
2022/11/23 03:27:28;;;;;;;4.18;1.88;;;3.50;99.90;;;;;;5007889;28;20034;-73
2022/11/23 03:29:53;;;;;;;6.70;1.50;;;3.50;99.90;;;;;;5007901;28;20613;-74
2022/11/23 03:32:22;;;;;;;5.97;2.00;;;3.50;99.90;;;;;;5006363;28;20154;-75
2022/11/23 03:35:00;;;;;;;3.55;1.50;;;3.50;99.90;;;;;;5009561;28;20026;-75
2022/11/23 03:37:29;;;;;;;6.53;1.50;;;3.50;99.90;;;;;;5007974;28;20472;-74
2022/11/23 03:39:54;;;;;;;3.85;1.48;;;3.50;99.90;;;;;;5001983;28;20030;-73
2022/11/23 03:42:23;;;;;;;3.75;1.08;;;3.50;99.90;;;;;;5009467;28;20034;-74
2022/11/23 03:44:48;;;;;;;6.15;1.90;;;3.50;99.90;;;;;;5006445;28;20564;-74
2022/11/23 03:47:20;;;;;;;4.15;1.80;;;3.50;99.90;;;;;;5007429;28;20030;-75
2022/11/23 03:49:52;;;;;;;3.08;1.33;;;3.50;99.90;;;;;;5005777;28;20065;-75
2022/11/23 03:52:20;;;;;;;3.58;1.60;;;3.40;99.90;;;;;;5000669;28;20372;-74
2022/11/23 03:54:46;;;;;;;9.75;1.90;;;3.40;99.90;;;;;;5007126;28;20044;-75
2022/11/23 03:57:11;;;;;;;7.20;1.52;;;3.40;99.90;;;;;;5003491;28;20029;-75
2022/11/23 03:59:43;;;;;;;4.90;1.60;;;3.40;99.90;;;;;;5013508;28;20126;-74
2022/11/23 04:02:11;;;;;;;3.00;1.35;;;3.40;99.90;;;;;;5010787;28;20034;-74
2022/11/23 04:04:40;;;;;;;5.80;1.98;;;3.40;99.90;;;;;;5014734;28;20568;-74
2022/11/23 04:07:05;;;;;;;5.53;1.40;;;3.40;99.90;;;;;;5009859;28;20491;-74
2022/11/23 04:09:40;;;;;;;10.98;1.73;;;3.40;99.90;;;;;;5006347;28;20344;-74
2022/11/23 04:12:08;;;;;;;4.68;1.40;;;3.40;99.90;;;;;;5011852;28;20025;-74
2022/11/23 04:14:33;;;;;;;5.40;1.60;;;3.40;99.90;;;;;;5006220;28;20049;-74
2022/11/23 04:17:00;;;;;;;4.35;1.38;;;3.40;99.90;;;;;;5008521;28;20014;-75
2022/11/23 04:19:26;;;;;;;2.38;1.17;;;3.50;99.90;;;;;;5003995;28;20021;-74
2022/11/23 04:21:58;;;;;;;6.15;1.35;;;3.50;99.90;;;;;;5008550;28;20029;-73
2022/11/23 04:24:30;;;;;;;5.60;1.17;;;3.50;99.90;;;;;;5010803;28;20482;-75
2022/11/23 04:26:55;;;;;;;8.27;1.17;;;3.50;99.90;;;;;;5011726;28;20381;-73
2022/11/23 04:29:24;;;;;;;8.48;2.20;;;3.50;99.90;;;;;;5006701;28;20029;-74
2022/11/23 04:31:53;;;;;;;3.22;1.30;;;3.60;99.90;;;;;;5008809;28;20101;-75
2022/11/23 04:34:21;;;;;;;3.58;1.35;;;3.60;99.90;;;;;;5009488;28;20052;-73
2022/11/23 04:36:47;;;;;;;5.63;1.23;;;3.60;99.90;;;;;;5008597;28;20026;-74
2022/11/23 04:39:12;;;;;;;5.00;1.15;;;3.60;99.90;;;;;;5009404;28;20113;-73
2022/11/23 04:41:38;;;;;;;3.78;1.15;;;3.60;99.90;;;;;;5009697;28;20033;-75
2022/11/23 04:44:08;;;;;;;4.75;1.08;;;3.60;99.90;;;;;;5005692;28;20081;-74
2022/11/23 04:46:34;;;;;;;5.25;1.55;;;3.60;99.90;;;;;;5007130;28;20040;-75
2022/11/23 04:49:00;;;;;;;2.55;1.10;;;3.60;99.90;;;;;;5012115;28;20144;-75
2022/11/23 04:51:28;;;;;;;2.20;0.93;;;3.60;99.90;;;;;;5005212;28;20390;-75
2022/11/23 04:54:00;;;;;;;4.18;1.23;;;3.60;99.90;;;;;;5012735;28;20490;-75
2022/11/23 04:56:28;;;;;;;3.88;1.30;;;3.60;99.90;;;;;;5011843;28;20047;-73
2022/11/23 04:58:54;;;;;;;4.28;1.30;;;3.70;99.90;;;;;;5004217;28;20030;-75
2022/11/23 05:01:29;;;;;;;4.32;1.30;;;3.70;99.90;;;;;;5014586;28;20029;-74
2022/11/23 05:03:57;;;;;;;8.32;2.33;;;3.70;99.90;;;;;;5013285;28;20549;-74
2022/11/23 05:06:23;;;;;;;8.15;1.13;;;3.70;99.90;;;;;;5013759;28;20105;-74
2022/11/23 05:08:49;;;;;;;7.07;1.20;;;3.70;99.90;;;;;;5014036;28;20105;-74
2022/11/23 05:11:18;;;;;;;5.13;1.10;;;3.70;99.90;;;;;;5013585;28;20026;-74
2022/11/23 05:13:47;;;;;;;4.03;1.27;;;3.70;99.90;;;;;;5009250;28;20053;-73
2022/11/23 05:16:15;;;;;;;6.07;1.55;;;3.70;99.90;;;;;;5006646;28;20061;-74
2022/11/23 05:18:41;;;;;;;3.90;1.45;;;3.70;99.90;;;;;;5012554;28;20029;-75
2022/11/23 05:21:06;;;;;;;6.75;1.40;;;3.70;99.90;;;;;;5008854;28;20013;-74
2022/11/23 05:23:35;;;;;;;3.80;1.35;;;3.70;99.90;;;;;;5003530;28;20099;-76
2022/11/23 05:26:01;;;;;;;3.53;1.52;;;3.70;99.90;;;;;;5011333;28;20028;-75
2022/11/23 05:28:29;;;;;;;4.93;2.42;;;3.70;99.90;;;;;;5005608;28;20270;-75
2022/11/23 05:30:55;;;;;;;6.13;1.60;;;3.60;99.90;;;;;;5008320;28;20050;-75
2022/11/23 05:33:21;;;;;;;3.28;1.50;;;3.60;99.90;;;;;;5007010;28;20529;-73
2022/11/23 05:35:46;;;;;;;6.70;1.98;;;3.60;99.90;;;;;;5011744;28;20494;-75
2022/11/23 05:38:12;;;;;;;7.75;2.13;;;3.60;99.90;;;;;;5012037;28;20030;-74
2022/11/23 05:40:41;;;;;;;3.22;1.38;;;3.60;99.90;;;;;;5008723;28;20365;-75
2022/11/23 05:43:12;;;;;;;9.63;2.58;;;3.60;99.90;;;;;;5006383;28;20036;-75
2022/11/23 05:45:41;;;;;;;3.28;1.27;;;3.60;99.90;;;;;;5003424;28;20069;-75
2022/11/23 05:48:16;;;;;;;4.10;1.40;;;3.60;99.90;;;;;;4995109;28;20053;-75
2022/11/23 05:50:41;;;;;;;5.20;2.13;;;3.60;99.90;;;;;;5001736;28;20462;-71
2022/11/23 05:53:13;;;;;;;3.17;1.50;;;3.60;99.90;;;;;;5007287;28;20275;-71
2022/11/23 05:55:38;;;;;;;3.08;1.10;;;3.80;99.90;;;;;;5004632;28;20029;-72
2022/11/23 05:58:04;;;;;;;2.63;1.25;;;3.90;99.90;;;;;;5006089;28;20475;-74
2022/11/23 06:00:30;;;;;;;6.50;1.63;;;4.00;99.90;;;;;;5008200;28;20046;-74
2022/11/23 06:03:04;;;;;;;8.82;2.58;;;4.00;99.90;;;;;;5007613;28;20034;-75
2022/11/23 06:05:30;;;;;;;3.22;1.48;;;4.00;99.90;;;;;;5006079;28;20038;-74
2022/11/23 06:07:56;;;;;;;5.25;1.63;;;3.90;99.90;;;;;;5006089;28;20324;-73
2022/11/23 06:10:34;;;;;;;6.18;1.75;;;3.90;99.90;;;;;;5002350;28;20023;-73
2022/11/23 06:13:11;;;;;;;5.18;1.95;;;3.90;99.90;;;;;;5005674;28;20030;-73
2022/11/23 06:15:37;;;;;;;5.95;1.55;;;3.80;99.90;;;;;;5006805;28;20101;-74
2022/11/23 06:18:03;;;;;;;4.15;1.58;;;3.80;99.90;;;;;;5003532;28;20065;-73
2022/11/23 06:20:28;;;;;;;4.43;2.22;;;3.80;99.90;;;;;;5009912;28;20486;-73
2022/11/23 06:22:55;;;;;;;4.88;1.70;;;3.70;99.90;;;;;;5011509;28;20028;-74
2022/11/23 06:25:32;;;;;;;7.45;1.98;;;3.70;99.90;;;;;;5002837;28;20030;-75
2022/11/23 06:28:01;;;;;;;4.03;1.73;;;3.70;99.90;;;;;;5009749;28;20026;-75
2022/11/23 06:30:28;;;;;;;5.10;2.13;;;3.60;99.90;;;;;;5009485;28;20471;-74
2022/11/23 06:32:57;;;;;;;11.70;2.50;;;3.60;99.90;;;;;;5006369;28;20038;-74
2022/11/23 06:35:29;;;;;;;6.32;1.88;;;3.50;99.90;;;;;;5004920;28;20037;-74
2022/11/23 06:37:58;;;;;;;6.13;2.03;;;3.50;99.90;;;;;;5000982;28;20021;-74
2022/11/23 06:40:24;;;;;;;8.43;2.17;;;3.50;99.90;;;;;;4999533;28;20026;-74
2022/11/23 06:42:56;;;;;;;6.20;2.42;;;3.50;99.90;;;;;;5006724;28;20037;-74
2022/11/23 06:45:26;;;;;;;8.15;2.35;;;3.50;99.90;;;;;;5006041;28;20070;-72
2022/11/23 06:47:55;;;;;;;11.43;2.00;;;3.40;99.90;;;;;;5008530;28;20038;-73
2022/11/23 06:50:20;;;;;;;5.05;1.85;;;3.40;99.90;;;;;;5010563;28;20371;-73
2022/11/23 06:52:46;;;;;;;5.07;1.95;;;3.40;99.90;;;;;;5009917;28;20034;-74
2022/11/23 06:55:18;;;;;;;7.63;2.28;;;3.40;99.90;;;;;;5009397;28;20033;-73
2022/11/23 06:57:46;;;;;;;5.85;2.03;;;3.40;99.90;;;;;;5012623;28;20105;-73
2022/11/23 07:00:12;;;;;;;5.78;1.92;;;3.40;99.90;;;;;;5010560;28;20030;-73
2022/11/23 07:02:38;;;;;;;11.77;2.40;;;3.40;99.90;;;;;;5008502;28;20025;-75
2022/11/23 07:05:04;;;;;;;5.75;2.05;;;3.30;99.90;;;;;;5014465;28;20387;-76
2022/11/23 07:07:36;;;;;;;5.47;1.80;;;3.30;99.90;;;;;;5013203;28;20033;-75
2022/11/23 07:10:13;;;;;;;5.38;2.08;;;3.30;99.90;;;;;;5008412;28;20046;-74
2022/11/23 07:12:40;;;;;;;5.13;1.92;;;3.20;99.90;;;;;;4993470;28;20027;-76
2022/11/23 07:15:14;;;;;;;7.07;2.40;;;3.20;99.90;;;;;;4998602;28;20038;-74
2022/11/23 07:17:41;;;;;;;10.18;2.22;;;3.20;99.90;;;;;;5005589;28;20026;-74
2022/11/23 07:20:13;;;;;;;5.65;2.13;;;3.20;99.90;;;;;;5012785;28;20057;-75
2022/11/23 07:22:45;;;;;;;5.28;2.08;;;3.20;99.90;;;;;;5012808;28;20388;-73
2022/11/23 07:25:17;;;;;;;8.88;2.17;;;3.10;99.90;;;;;;5011184;28;20050;-75
2022/11/23 07:27:43;;;;;;;8.02;2.72;;;3.10;99.90;;;;;;5003779;28;20026;-75
2022/11/23 07:30:12;;;;;;;8.88;3.03;;;3.10;99.90;;;;;;5013353;28;20121;-74
2022/11/23 07:32:38;;;;;;;9.38;3.03;;;3.10;99.90;;;;;;5011966;28;20034;-76
2022/11/23 07:35:03;;;;;;;6.60;3.10;;;3.10;99.90;;;;;;5013440;28;20364;-77
2022/11/23 07:37:29;;;;;;;6.03;3.05;;;3.10;99.90;;;;;;5006792;28;20031;-77
2022/11/23 07:39:55;;;;;;;7.47;3.47;;;3.10;99.90;;;;;;5010791;28;20076;-75
2022/11/23 07:42:23;;;;;;;10.70;3.30;;;3.20;99.90;;;;;;5009990;28;20038;-75
2022/11/23 07:44:55;;;;;;;6.20;3.13;;;3.20;99.90;;;;;;5009948;28;20025;-76
2022/11/23 07:47:24;;;;;;;8.02;3.53;;;3.30;99.90;;;;;;5005780;28;20506;-76
2022/11/23 07:49:58;;;;;;;9.85;3.22;;;3.30;99.90;;;;;;5011041;28;20108;-75
2022/11/23 07:52:30;;;;;;;15.25;5.15;;;3.40;99.90;;;;;;5005208;28;20026;-77
2022/11/23 07:55:02;;;;;;;6.82;3.65;;;3.40;99.90;;;;;;5008688;28;20025;-77
2022/11/23 07:57:40;;;;;;;8.88;3.30;;;3.50;99.90;;;;;;5011293;28;20077;-76
2022/11/23 08:00:06;;;;;;;9.10;2.83;;;3.50;99.90;;;;;;5012122;28;20038;-75
2022/11/23 08:02:32;;;;;;;5.40;2.75;;;3.60;99.90;;;;;;5013862;28;20026;-75
2022/11/23 08:04:58;;;;;;;8.15;3.42;;;3.60;99.90;;;;;;5008501;28;20047;-76
2022/11/23 08:07:23;;;;;;;6.53;2.83;;;3.70;99.90;;;;;;5010387;28;20038;-75
2022/11/23 08:09:49;;;;;;;6.20;2.50;;;3.70;99.90;;;;;;4999545;28;20033;-73
2022/11/23 08:12:15;;;;;;;9.50;2.75;;;3.80;99.90;;;;;;5010305;28;20018;-76
2022/11/23 08:14:40;;;;;;;7.28;2.70;;;3.80;99.90;;;;;;5004472;28;20451;-76
2022/11/23 08:17:06;;;;;;;10.43;2.65;;;3.80;99.90;;;;;;5010545;28;20521;-75
2022/11/23 08:19:43;;;;;;;3.83;2.25;;;3.90;99.90;;;;;;5007231;28;20037;-75
2022/11/23 08:22:09;;;;;;;7.85;3.33;;;4.00;99.90;;;;;;5012616;28;20062;-76
2022/11/23 08:24:41;;;;;;;7.55;3.08;;;4.00;99.90;;;;;;5011672;28;20030;-76
2022/11/23 08:27:06;;;;;;;5.43;2.83;;;4.00;99.90;;;;;;5022768;23;20120;-79
2022/11/23 08:29:45;;;;;;;5.07;2.53;;;4.10;99.90;;;;;;5014006;28;20482;-81
2022/11/23 08:32:11;;;;;;;4.40;2.25;;;4.10;99.90;;;;;;5009303;28;20031;-79
2022/11/23 08:34:41;;;;;;;6.05;2.70;;;4.20;99.90;;;;;;5009294;28;20084;-79
2022/11/23 08:37:06;;;;;;;6.97;3.08;;;4.20;99.90;;;;;;5009560;28;20414;-79
2022/11/23 08:39:32;;;;;;;5.93;3.03;;;4.30;99.90;;;;;;5012019;28;20018;-78
2022/11/23 08:41:57;;;;;;;7.47;3.42;;;4.30;99.90;;;;;;5005899;28;20022;-78
2022/11/23 08:44:23;;;;;;;7.90;2.42;;;4.30;99.90;;;;;;5016100;28;20018;-79
2022/11/23 08:46:49;;;;;;;7.20;3.13;;;4.40;99.90;;;;;;5013585;28;20038;-81
2022/11/23 08:49:15;;;;;;;8.13;2.55;;;4.40;99.90;;;;;;5016792;28;20034;-81
2022/11/23 08:51:46;;;;;;;7.55;2.85;;;4.50;99.90;;;;;;5022805;28;20181;-81
2022/11/23 08:54:31;;;;;;;6.68;3.00;;;4.60;99.90;;;;;;5017397;28;20486;-81
2022/11/23 08:56:56;;;;;;;6.72;3.25;;;4.60;99.90;;;;;;5013957;28;20034;-79
2022/11/23 08:59:22;;;;;;;6.20;3.28;;;4.70;99.90;;;;;;5018465;28;20363;-80
2022/11/23 09:01:48;;;;;;;6.15;2.70;;;4.70;99.90;;;;;;5020558;28;20056;-80
2022/11/23 09:04:13;;;;;;;7.10;2.70;;;4.70;99.90;;;;;;5022341;28;20394;-81
2022/11/23 09:06:42;;;;;;;7.00;2.33;;;4.80;99.90;;;;;;5016471;28;20038;-80
2022/11/23 09:09:10;;;;;;;8.60;2.55;;;4.80;99.90;;;;;;5012804;28;20034;-80
2022/11/23 09:11:45;;;;;;;8.77;3.33;;;4.80;99.90;;;;;;5016542;28;20038;-79
2022/11/23 09:14:14;;;;;;;10.15;2.83;;;4.90;99.90;;;;;;5016749;28;20029;-81
2022/11/23 09:16:46;;;;;;;5.25;2.65;;;4.90;99.90;;;;;;5015448;28;20056;-81
2022/11/23 09:19:18;;;;;;;4.03;1.98;;;5.00;99.90;;;;;;5015192;28;20030;-82
2022/11/23 09:21:56;;;;;;;6.32;2.80;;;5.10;99.90;;;;;;5013760;28;20141;-80
2022/11/23 09:24:34;;;;;;;5.53;2.13;;;5.10;99.90;;;;;;5018924;28;20054;-81
2022/11/23 09:26:59;;;;;;;4.07;2.10;;;5.10;99.90;;;;;;5026201;28;20053;-79
2022/11/23 09:29:32;;;;;;;3.22;1.92;;;5.20;99.90;;;;;;5019980;28;20057;-81
2022/11/23 09:32:06;;;;;;;5.07;2.35;;;5.20;99.90;;;;;;5015481;28;20328;-79
2022/11/23 09:34:32;;;;;;;3.92;2.00;;;5.30;99.90;;;;;;5016332;28;20034;-79
2022/11/23 09:36:57;;;;;;;3.95;1.98;;;5.40;99.90;;;;;;5004912;28;20127;-81
2022/11/23 09:39:23;;;;;;;3.60;2.13;;;5.40;99.90;;;;;;5015305;28;20041;-80
2022/11/23 09:42:08;;;;;;;3.45;1.88;;;5.40;99.90;;;;;;5019301;28;20475;-81
2022/11/23 09:44:57;;;;;;;5.43;2.15;;;5.50;99.90;;;;;;5020033;28;20029;-79
2022/11/23 09:47:41;;;;;;;4.25;2.00;;;5.50;99.90;;;;;;5010436;28;20046;-81
2022/11/23 09:50:16;;;;;;;5.13;2.03;;;5.60;99.90;;;;;;5013884;28;20049;-80
2022/11/23 09:52:48;;;;;;;3.85;1.98;;;5.60;99.90;;;;;;5017112;28;20062;-80
2022/11/23 09:55:43;;;;;;;7.10;2.20;;;5.70;99.90;;;;;;5019301;28;20049;-80
2022/11/23 09:58:16;;;;;;;6.03;2.30;;;5.80;99.90;;;;;;5013437;28;20026;-81
2022/11/23 10:01:03;;;;;;;3.77;1.90;;;5.80;99.90;;;;;;5016462;28;20026;-80
2022/11/23 10:03:35;;;;;;;4.05;1.92;;;5.80;99.90;;;;;;5013812;28;20035;-82
2022/11/23 10:06:18;;;;;;;5.10;1.70;;;5.90;99.90;;;;;;5017734;28;20032;-80
2022/11/23 10:08:44;;;;;;;2.90;1.80;;;5.90;99.90;;;;;;5015724;28;20073;-80
2022/11/23 10:11:35;;;;;;;3.65;1.95;;;6.00;99.90;;;;;;5016840;28;20119;-81
2022/11/23 10:14:19;;;;;;;3.80;2.00;;;6.00;99.90;;;;;;5017301;28;20390;-80
2022/11/23 10:17:10;;;;;;;3.42;1.90;;;6.00;99.90;;;;;;5013814;28;20069;-79
2022/11/23 10:20:36;;;;;;;5.00;2.25;;;6.00;99.90;;;;;;5023054;28;20030;-80
2022/11/23 10:23:07;;;;;;;3.55;1.98;;;6.00;99.90;;;;;;5025370;28;20098;-81
2022/11/23 10:25:46;;;;;;;4.63;2.03;;;6.00;99.90;;;;;;5014456;28;20026;-82
2022/11/23 10:28:14;;;;;;;4.47;2.30;;;6.10;99.90;;;;;;5018112;28;20034;-83
2022/11/23 10:30:40;;;;;;;5.35;2.60;;;6.10;99.90;;;;;;5022173;28;20100;-82
2022/11/23 10:33:30;;;;;;;7.80;2.28;;;6.10;99.90;;;;;;5024710;28;20049;-83
2022/11/23 10:36:02;;;;;;;4.28;2.05;;;6.20;99.90;;;;;;5023561;28;20137;-84
2022/11/23 10:38:28;;;;;;;4.30;1.88;;;6.20;99.90;;;;;;5023712;28;20032;-83
2022/11/23 10:41:02;;;;;;;2.08;1.42;;;6.20;99.90;;;;;;5035995;28;21245;-84
2022/11/23 10:43:50;;;;;;;4.97;2.53;;;6.20;99.90;;;;;;5032732;28;20427;-83
2022/11/23 10:46:34;;;;;;;4.88;2.03;;;6.30;99.90;;;;;;5024768;28;20057;-82
2022/11/23 10:49:21;;;;;;;;;;;6.30;99.90;;;;;;5023141;28;20014;-85
2022/11/23 10:51:57;;;;;;;4.50;2.22;;;6.30;99.90;;;;;;5012911;28;19910;-82
2022/11/23 10:54:28;;;;;;;3.13;1.48;;;6.30;99.90;;;;;;5021032;28;20038;-81
2022/11/23 10:57:35;;;;;;;3.72;1.73;;;6.40;99.90;;;;;;5030201;28;20017;-86
2022/11/23 11:00:08;;;;;;;4.75;1.75;;;6.40;99.90;;;;;;5034302;28;20014;-84
2022/11/23 11:02:54;;;;;;;3.95;1.75;;;6.40;99.90;;;;;;5023200;28;20025;-80
2022/11/23 11:05:48;;;;;;;3.38;1.25;;;6.50;99.90;;;;;;5025236;28;20040;-83
2022/11/23 11:08:17;;;;;;;5.80;2.15;;;6.50;99.90;;;;;;5021417;28;20024;-82
2022/11/23 11:10:45;;;;;;;6.70;2.00;;;6.60;99.90;;;;;;5010789;28;20041;-82
2022/11/23 11:13:24;;;;;;;4.28;1.83;;;6.60;99.90;;;;;;5027024;28;20033;-83
2022/11/23 11:15:52;;;;;;;3.10;1.50;;;6.60;99.90;;;;;;5017718;28;20018;-83
2022/11/23 11:18:18;;;;;;;4.45;1.75;;;6.60;99.90;;;;;;5026550;28;20026;-84
2022/11/23 11:21:04;;;;;;;5.80;1.48;;;6.60;99.90;;;;;;5018077;28;20518;-83
2022/11/23 11:23:31;;;;;;;5.35;2.03;;;6.70;99.90;;;;;;5021467;28;20116;-83
2022/11/23 11:26:13;;;;;;;5.47;1.65;;;6.70;99.90;;;;;;5021660;28;20068;-83
2022/11/23 11:28:48;;;;;;;3.92;1.45;;;6.80;99.90;;;;;;5019029;28;20025;-82
2022/11/23 11:31:23;;;;;;;3.00;1.30;;;6.80;99.90;;;;;;5021232;28;20041;-83
2022/11/23 11:34:01;;;;;;;3.55;1.40;;;6.80;99.90;;;;;;5018329;28;20034;-87
2022/11/23 11:36:33;;;;;;;4.18;1.52;;;6.80;99.90;;;;;;5022434;28;20063;-86
2022/11/23 11:39:22;;;;;;;4.70;1.35;;;6.90;99.90;;;;;;5021233;28;20090;-83
2022/11/23 11:42:03;;;;;;;2.83;1.20;;;6.90;99.90;;;;;;5022756;28;20033;-84
2022/11/23 11:44:35;;;;;;;6.88;1.23;;;7.00;99.90;;;;;;5019164;28;20065;-86
2022/11/23 11:47:31;;;;;;;4.03;1.33;;;7.00;99.90;;;;;;5026717;28;20032;-84
2022/11/23 11:50:09;;;;;;;4.40;1.35;;;7.10;99.90;;;;;;5018757;28;21154;-84
2022/11/23 11:52:46;;;;;;;6.88;1.73;;;7.20;99.90;;;;;;5019423;28;20038;-82
2022/11/23 11:55:19;;;;;;;3.25;1.00;;;7.30;99.90;;;;;;5021737;28;20558;-82
2022/11/23 11:58:10;;;;;;;8.57;1.40;;;7.30;99.90;;;;;;5021250;28;20053;-81
2022/11/23 12:00:38;;;;;;;4.47;1.48;;;7.40;99.90;;;;;;5018509;28;20098;-84
2022/11/23 12:03:41;;;;;;;2.90;1.02;;;7.40;99.90;;;;;;5013419;28;20061;-88
2022/11/23 12:06:24;;;;;;;5.70;1.20;;;7.50;99.90;;;;;;5024125;28;20022;-81
2022/11/23 12:09:06;;;;;;;3.03;1.52;;;7.70;99.90;;;;;;5015655;28;20045;-80
2022/11/23 12:11:32;;;;;;;3.33;1.27;;;7.70;99.90;;;;;;5010280;28;20045;-82
2022/11/23 12:14:01;;;;;;;6.50;1.25;;;7.90;99.90;;;;;;5031976;28;20036;-82
2022/11/23 12:17:01;;;;;;;7.32;1.20;;;7.90;99.90;;;;;;5018052;28;20018;-85
2022/11/23 12:20:01;;;;;;;2.25;0.88;;;8.00;99.90;;;;;;5018702;28;20058;-81
2022/11/23 12:23:13;;;;;;;2.03;1.10;;;8.10;99.90;;;;;;5017662;28;20097;-84
2022/11/23 12:26:14;;;;;;;5.07;1.40;;;8.20;99.90;;;;;;5026741;28;20707;-83
2022/11/23 12:29:17;;;;;;;9.52;1.13;;;8.40;99.90;;;;;;5013300;28;20038;-83
2022/11/23 12:31:50;;;;;;;2.78;1.00;;;8.50;99.90;;;;;;5023789;28;20037;-81
2022/11/23 12:34:44;;;;;;;1.97;0.93;;;8.60;99.90;;;;;;5021163;28;20398;-81
2022/11/23 12:37:50;;;;;;;4.60;1.30;;;8.70;99.90;;;;;;5018635;28;20286;-80
2022/11/23 12:40:41;;;;;;;3.50;1.00;;;8.80;99.90;;;;;;5024472;28;20058;-87
2022/11/23 12:43:45;;;;;;;5.85;1.05;;;9.00;99.90;;;;;;5019650;28;20033;-81
2022/11/23 12:46:53;;;;;;;2.78;1.13;;;9.00;99.90;;;;;;5019998;28;20101;-81
2022/11/23 12:49:53;;;;;;;3.55;0.82;;;8.90;99.90;;;;;;5031813;28;20036;-80
2022/11/23 12:52:43;;;;;;;2.25;0.88;;;9.00;99.90;;;;;;5020650;28;20030;-83
2022/11/23 12:55:28;;;;;;;2.80;0.85;;;9.10;99.90;;;;;;5025103;28;20073;-81
2022/11/23 12:58:22;;;;;;;6.53;1.02;;;9.20;99.90;;;;;;5022816;28;20181;-81
2022/11/23 13:01:03;;;;;;;1.92;0.85;;;9.40;99.90;;;;;;5017021;28;20444;-80
2022/11/23 13:03:46;;;;;;;4.63;0.90;;;9.50;99.90;;;;;;5022539;28;20410;-81
2022/11/23 13:06:18;;;;;;;4.88;1.33;;;9.60;99.90;;;;;;5015248;28;20038;-83
2022/11/23 13:09:10;;;;;;;2.80;0.85;;;9.60;99.90;;;;;;5018722;28;20076;-81
2022/11/23 13:12:04;;;;;;;3.28;1.33;;;9.60;99.90;;;;;;5021053;28;20076;-81
2022/11/23 13:14:41;;;;;;;6.30;1.00;;;9.70;99.90;;;;;;5021439;28;20443;-84
2022/11/23 13:17:33;;;;;;;2.40;1.00;;;9.80;99.90;;;;;;5020824;28;20040;-90
2022/11/23 13:20:41;;;;;;;4.00;1.15;;;9.80;99.90;;;;;;5020712;28;20033;-82
2022/11/23 13:23:10;;;;;;;2.45;1.02;;;9.70;99.90;;;;;;5012521;28;20027;-82
2022/11/23 13:25:36;;;;;;;5.88;1.50;;;9.70;99.90;;;;;;5022157;28;20040;-81